Time;durP1;ratioP1;P1;durP2;ratioP2;P2;SDS_P1;SDS_P2;PMS_P1;PMS_P2;Temp;Humidity;BMP_temperature;BMP_pressure;BME280_temperature;BME280_humidity;BME280_pressure;Samples;Min_cycle;Max_cycle;Signal;HPM_P1;HPM_P2
2023/01/24 00:00:43;;;;;;;3.43;2.27;;;;;;;;;;5096249;28;20023;-60
2023/01/24 00:03:12;;;;;;;4.63;2.80;;;;;;;;;;5096247;28;20016;-58
2023/01/24 00:05:38;;;;;;;3.70;2.53;;;;;;;;;;5095266;28;20074;-58
2023/01/24 00:08:03;;;;;;;7.88;2.88;;;;;;;;;;5092634;28;20020;-62
2023/01/24 00:10:31;;;;;;;4.00;2.47;;;;;;;;;;5093528;28;20031;-58
2023/01/24 00:12:57;;;;;;;7.30;4.05;;;;;;;;;;5094620;28;20062;-57
2023/01/24 00:15:22;;;;;;;2.87;1.80;;;;;;;;;;5096527;28;20019;-58
2023/01/24 00:17:48;;;;;;;5.80;3.42;;;;;;;;;;5094582;28;20020;-57
2023/01/24 00:20:13;;;;;;;7.35;3.67;;;;;;;;;;5093725;28;20107;-58
2023/01/24 00:22:38;;;;;;;4.03;2.75;;;;;;;;;;5092916;28;20100;-58
2023/01/24 00:25:04;;;;;;;3.15;2.40;;;;;;;;;;5092143;28;20020;-57
2023/01/24 00:27:31;;;;;;;3.85;2.55;;;;;;;;;;5096929;28;20016;-57
2023/01/24 00:29:57;;;;;;;6.25;2.90;;;;;;;;;;5097678;28;20496;-58
2023/01/24 00:32:23;;;;;;;3.88;2.30;;;;;;;;;;5097935;28;20085;-59
2023/01/24 00:34:48;;;;;;;4.43;2.97;;;;;;;;;;5097953;28;20020;-63
2023/01/24 00:37:14;;;;;;;4.65;2.47;;;;;;;;;;5095528;28;20472;-58
2023/01/24 00:39:39;;;;;;;3.20;2.45;;;;;;;;;;5097252;28;20024;-57
2023/01/24 00:42:05;;;;;;;3.42;2.05;;;;;;;;;;5097488;28;20046;-58
2023/01/24 00:44:30;;;;;;;3.53;2.22;;;;;;;;;;5104597;28;20028;-71
2023/01/24 00:46:55;;;;;;;3.53;2.47;;;;;;;;;;5098054;28;20020;-56
2023/01/24 00:49:21;;;;;;;4.32;2.92;;;;;;;;;;5097346;28;20012;-59
2023/01/24 00:51:46;;;;;;;4.28;2.92;;;;;;;;;;5096635;28;20028;-57
2023/01/24 00:54:12;;;;;;;6.05;3.03;;;;;;;;;;5095656;28;20165;-57
2023/01/24 00:56:37;;;;;;;4.93;2.33;;;;;;;;;;5096685;28;20459;-57
2023/01/24 00:59:03;;;;;;;4.88;2.65;;;;;;;;;;5095168;28;20024;-57
2023/01/24 01:01:28;;;;;;;5.10;3.15;;;;;;;;;;5095576;28;20376;-56
2023/01/24 01:03:54;;;;;;;3.65;2.80;;;;;;;;;;5096538;28;20048;-56
2023/01/24 01:06:20;;;;;;;2.58;1.92;;;;;;;;;;5095465;28;20088;-56
2023/01/24 01:08:45;;;;;;;3.25;1.73;;;;;;;;;;5096018;28;20487;-56
2023/01/24 01:11:11;;;;;;;2.97;2.10;;;;;;;;;;5095944;28;20107;-57
2023/01/24 01:13:36;;;;;;;5.07;3.30;;;;;;;;;;5094939;28;20020;-61
2023/01/24 01:16:06;;;;;;;4.33;2.23;;;;;;;;;;5096016;28;20549;-55
2023/01/24 01:18:32;;;;;;;3.17;2.03;;;;;;;;;;5095083;28;20034;-57
2023/01/24 01:20:57;;;;;;;3.83;2.80;;;;;;;;;;5094364;28;20111;-58
2023/01/24 01:23:23;;;;;;;5.90;3.55;;;;;;;;;;5095750;28;20068;-57
2023/01/24 01:25:48;;;;;;;4.97;2.95;;;;;;;;;;5094391;28;20016;-57
2023/01/24 01:28:14;;;;;;;3.42;2.45;;;;;;;;;;5096327;28;20020;-56
2023/01/24 01:30:39;;;;;;;4.60;3.20;;;;;;;;;;5094416;28;20113;-57
2023/01/24 01:33:04;;;;;;;4.78;3.05;;;;;;;;;;5095320;28;20051;-67
2023/01/24 01:35:30;;;;;;;2.88;1.90;;;;;;;;;;5094740;28;20027;-57
2023/01/24 01:37:55;;;;;;;2.97;2.20;;;;;;;;;;5093732;28;20108;-56
2023/01/24 01:40:21;;;;;;;5.38;3.70;;;;;;;;;;5095746;28;20107;-57
2023/01/24 01:42:53;;;;;;;4.13;2.67;;;;;;;;;;5095433;28;20069;-61
2023/01/24 01:45:28;;;;;;;5.63;3.08;;;;;;;;;;5095380;28;20032;-56
2023/01/24 01:47:54;;;;;;;5.45;2.38;;;;;;;;;;5097573;28;20024;-58
2023/01/24 01:50:25;;;;;;;7.03;3.55;;;;;;;;;;5097862;28;20028;-59
2023/01/24 01:52:51;;;;;;;3.83;2.10;;;;;;;;;;5097811;28;20024;-56
2023/01/24 01:55:18;;;;;;;2.33;1.80;;;;;;;;;;5094226;28;20094;-56
2023/01/24 01:57:45;;;;;;;4.85;3.40;;;;;;;;;;5094306;28;20095;-57
2023/01/24 02:00:15;;;;;;;4.57;3.20;;;;;;;;;;5093922;28;20114;-58
2023/01/24 02:02:43;;;;;;;3.88;2.92;;;;;;;;;;5093616;28;20059;-59
2023/01/24 02:05:10;;;;;;;3.58;2.72;;;;;;;;;;5093320;28;20064;-55
2023/01/24 02:07:41;;;;;;;4.85;2.42;;;;;;;;;;5094234;28;20076;-57
2023/01/24 02:10:07;;;;;;;6.13;2.53;;;;;;;;;;5094918;28;20047;-55
2023/01/24 02:12:43;;;;;;;4.72;3.47;;;;;;;;;;5094853;28;20056;-56
2023/01/24 02:17:55;;;;;;;4.30;2.60;;;;;;;;;;5095055;28;20046;-57
2023/01/24 02:20:20;;;;;;;4.70;2.83;;;;;;;;;;5093321;28;20473;-57
2023/01/24 02:23:09;;;;;;;3.40;2.65;;;;;;;;;;5095110;28;20373;-57
2023/01/24 02:25:42;;;;;;;5.68;3.45;;;;;;;;;;5055790;28;20494;-57
2023/01/24 02:28:08;;;;;;;6.78;3.15;;;;;;;;;;5093370;28;20027;-61
2023/01/24 02:30:35;;;;;;;3.85;2.75;;;;;;;;;;5094569;28;20403;-58
2023/01/24 02:33:08;;;;;;;5.68;4.38;;;;;;;;;;5093026;28;20400;-57
2023/01/24 02:35:33;;;;;;;6.20;4.63;;;;;;;;;;5093207;28;20023;-57
2023/01/24 02:38:03;;;;;;;6.57;4.22;;;;;;;;;;5094403;28;20009;-58
2023/01/24 02:40:29;;;;;;;4.88;3.17;;;;;;;;;;5094246;28;20036;-58
2023/01/24 02:42:56;;;;;;;4.72;3.67;;;;;;;;;;5093201;28;20020;-57
2023/01/24 02:45:23;;;;;;;7.25;4.78;;;;;;;;;;5093278;28;20124;-58
2023/01/24 02:47:50;;;;;;;4.65;3.05;;;;;;;;;;5094561;28;20023;-56
2023/01/24 02:50:16;;;;;;;2.83;2.28;;;;;;;;;;5092724;28;20039;-57
2023/01/24 02:55:25;;;;;;;6.80;4.68;;;;;;;;;;5094048;28;20073;-56
2023/01/24 02:58:06;;;;;;;5.97;4.10;;;;;;;;;;5094889;28;20024;-58
2023/01/24 03:00:41;;;;;;;7.63;4.43;;;;;;;;;;5094612;28;20051;-57
2023/01/24 03:03:07;;;;;;;5.43;2.83;;;;;;;;;;5094052;28;20034;-56
2023/01/24 03:05:46;;;;;;;5.10;3.47;;;;;;;;;;5093233;28;20056;-58
2023/01/24 03:08:11;;;;;;;4.65;3.03;;;;;;;;;;5095632;28;20043;-62
2023/01/24 03:10:37;;;;;;;5.63;3.22;;;;;;;;;;5096960;28;20012;-59
2023/01/24 03:34:53;;;;;;;6.15;4.05;;;;;;;;;;5093733;28;20703;-56
2023/01/24 03:40:06;;;;;;;7.15;4.82;;;;;;;;;;5093717;28;20073;-61
2023/01/24 03:42:31;;;;;;;6.75;5.15;;;;;;;;;;5092120;28;20031;-61
2023/01/24 03:44:57;;;;;;;8.10;4.72;;;;;;;;;;5093643;28;20020;-57
2023/01/24 03:47:22;;;;;;;6.10;4.05;;;;;;;;;;5093684;28;20024;-57
2023/01/24 03:52:32;;;;;;;5.10;3.13;;;;;;;;;;5093271;28;20077;-58
2023/01/24 03:54:58;;;;;;;7.18;4.68;;;;;;;;;;5092928;28;20095;-56
2023/01/24 03:57:24;;;;;;;10.25;3.70;;;;;;;;;;5093167;28;20031;-57
2023/01/24 03:59:50;;;;;;;6.97;4.53;;;;;;;;;;5092578;28;20488;-57
2023/01/24 04:02:16;;;;;;;7.82;2.95;;;;;;;;;;5093190;28;20024;-57
2023/01/24 04:07:26;;;;;;;5.60;3.35;;;;;;;;;;5093796;28;20522;-63
2023/01/24 04:09:52;;;;;;;4.72;3.08;;;;;;;;;;5093395;28;20369;-57
2023/01/24 04:12:17;;;;;;;4.38;2.85;;;;;;;;;;5091434;28;20034;-56
2023/01/24 04:14:42;;;;;;;10.68;5.38;;;;;;;;;;5091714;28;20402;-56
2023/01/24 04:17:08;;;;;;;10.10;5.05;;;;;;;;;;5091711;28;20024;-58
2023/01/24 04:19:34;;;;;;;6.35;3.38;;;;;;;;;;5094732;28;20020;-58
2023/01/24 04:21:59;;;;;;;6.88;4.65;;;;;;;;;;5093364;28;20024;-58
2023/01/24 04:24:24;;;;;;;9.60;4.70;;;;;;;;;;5093525;28;20122;-58
2023/01/24 04:26:50;;;;;;;7.18;5.15;;;;;;;;;;5095558;28;20024;-58
2023/01/24 04:29:15;;;;;;;8.48;5.43;;;;;;;;;;5092148;28;20056;-59
2023/01/24 04:31:41;;;;;;;7.43;5.57;;;;;;;;;;5091364;28;20076;-58
2023/01/24 04:34:06;;;;;;;10.02;5.20;;;;;;;;;;5093406;28;20022;-58
2023/01/24 04:36:32;;;;;;;8.50;6.18;;;;;;;;;;5095310;28;20484;-58
2023/01/24 04:38:57;;;;;;;13.13;5.55;;;;;;;;;;5096698;28;20024;-65
2023/01/24 04:41:23;;;;;;;7.65;5.20;;;;;;;;;;5096488;28;20070;-59
2023/01/24 04:43:48;;;;;;;6.55;4.70;;;;;;;;;;5095670;28;20028;-59
2023/01/24 04:46:14;;;;;;;8.35;5.65;;;;;;;;;;5094344;28;20012;-58
2023/01/24 04:48:39;;;;;;;9.23;5.25;;;;;;;;;;5091546;28;20035;-58
2023/01/24 04:51:04;;;;;;;8.88;3.78;;;;;;;;;;5091668;28;20024;-57
2023/01/24 04:53:30;;;;;;;5.80;3.67;;;;;;;;;;5091191;28;20028;-58
2023/01/24 04:56:00;;;;;;;8.60;5.25;;;;;;;;;;5091585;28;20020;-57
2023/01/24 04:58:25;;;;;;;11.52;5.03;;;;;;;;;;5092972;28;20020;-58
2023/01/24 05:00:52;;;;;;;5.85;3.45;;;;;;;;;;5091342;28;20384;-64
2023/01/24 05:03:17;;;;;;;8.95;6.00;;;;;;;;;;5091893;28;20024;-56
2023/01/24 05:05:43;;;;;;;8.55;4.57;;;;;;;;;;5092875;28;20051;-58
2023/01/24 05:08:08;;;;;;;7.15;4.00;;;;;;;;;;5092725;28;20538;-59
2023/01/24 05:10:34;;;;;;;7.03;3.80;;;;;;;;;;5091167;28;20081;-57
2023/01/24 05:12:59;;;;;;;5.70;3.53;;;;;;;;;;5094952;28;20051;-57
2023/01/24 05:15:25;;;;;;;9.57;5.55;;;;;;;;;;5094973;28;20028;-58
2023/01/24 05:17:51;;;;;;;15.10;5.72;;;;;;;;;;5096077;28;20547;-58
2023/01/24 05:20:17;;;;;;;9.55;4.80;;;;;;;;;;5094905;28;20044;-58
2023/01/24 05:22:46;;;;;;;10.05;5.18;;;;;;;;;;5094669;28;20025;-59
2023/01/24 05:25:13;;;;;;;14.00;6.55;;;;;;;;;;5094202;28;20028;-59
2023/01/24 05:27:39;;;;;;;10.98;6.50;;;;;;;;;;5095181;28;20028;-57
2023/01/24 05:30:05;;;;;;;10.10;4.10;;;;;;;;;;5095934;28;20069;-59
2023/01/24 05:32:31;;;;;;;8.27;4.55;;;;;;;;;;5096516;28;20040;-58
2023/01/24 05:34:56;;;;;;;10.25;5.45;;;;;;;;;;5094645;28;20012;-58
2023/01/24 05:37:21;;;;;;;10.32;5.13;;;;;;;;;;5094834;28;20095;-61
2023/01/24 05:39:47;;;;;;;10.43;6.35;;;;;;;;;;5096117;28;20028;-57
2023/01/24 05:42:12;;;;;;;8.90;5.45;;;;;;;;;;5095174;28;20055;-58
2023/01/24 05:44:42;;;;;;;9.98;6.15;;;;;;;;;;5094338;28;20051;-58
2023/01/24 05:47:07;;;;;;;20.88;7.05;;;;;;;;;;5095203;28;20023;-57
2023/01/24 05:49:33;;;;;;;16.70;6.55;;;;;;;;;;5094209;28;20392;-58
2023/01/24 05:51:59;;;;;;;9.10;5.40;;;;;;;;;;5095401;28;20024;-60
2023/01/24 05:54:25;;;;;;;12.93;6.20;;;;;;;;;;5094777;28;20023;-57
2023/01/24 05:56:51;;;;;;;7.88;4.55;;;;;;;;;;5095356;28;20012;-57
2023/01/24 05:59:16;;;;;;;15.85;8.32;;;;;;;;;;5094998;28;20081;-57
2023/01/24 06:01:42;;;;;;;13.48;7.25;;;;;;;;;;5094820;28;20065;-60
2023/01/24 06:04:07;;;;;;;14.07;7.82;;;;;;;;;;5095415;28;20044;-58
2023/01/24 06:06:34;;;;;;;8.75;5.22;;;;;;;;;;5095173;28;20040;-57
2023/01/24 06:08:59;;;;;;;9.52;4.10;;;;;;;;;;5094903;28;20034;-60
2023/01/24 06:11:27;;;;;;;7.40;4.25;;;;;;;;;;5095002;28;20038;-59
2023/01/24 06:13:54;;;;;;;13.75;6.10;;;;;;;;;;5098323;28;20091;-59
2023/01/24 06:16:20;;;;;;;12.40;5.50;;;;;;;;;;5098281;28;20103;-59
2023/01/24 06:18:47;;;;;;;10.88;6.55;;;;;;;;;;5094008;28;20024;-57
2023/01/24 06:21:30;;;;;;;10.57;6.53;;;;;;;;;;5094475;28;20081;-59
2023/01/24 06:23:56;;;;;;;14.10;8.07;;;;;;;;;;5093608;28;20020;-58
2023/01/24 06:26:21;;;;;;;11.38;5.70;;;;;;;;;;5094523;28;20031;-59
2023/01/24 06:28:47;;;;;;;12.98;5.38;;;;;;;;;;5095320;28;20016;-59
2023/01/24 06:31:19;;;;;;;10.98;5.50;;;;;;;;;;5096568;28;20020;-57
2023/01/24 06:33:51;;;;;;;19.17;6.57;;;;;;;;;;5094632;28;20036;-61
2023/01/24 06:36:17;;;;;;;13.82;7.32;;;;;;;;;;5094118;28;20093;-58
2023/01/24 06:38:42;;;;;;;15.50;8.30;;;;;;;;;;5094088;28;20354;-60
2023/01/24 06:41:16;;;;;;;17.92;6.57;;;;;;;;;;5094164;28;20068;-59
2023/01/24 06:43:42;;;;;;;13.48;6.65;;;;;;;;;;5094151;28;20012;-57
2023/01/24 06:46:08;;;;;;;19.17;7.63;;;;;;;;;;5094297;28;20016;-59
2023/01/24 06:48:34;;;;;;;14.82;6.95;;;;;;;;;;5091757;28;20016;-58
2023/01/24 06:50:59;;;;;;;13.30;6.10;;;;;;;;;;5093380;28;20445;-60
2023/01/24 06:53:25;;;;;;;14.02;7.82;;;;;;;;;;5093160;28;20027;-59
2023/01/24 06:55:50;;;;;;;13.70;7.40;;;;;;;;;;5092518;28;20434;-59
2023/01/24 06:58:16;;;;;;;9.02;6.07;;;;;;;;;;5093562;28;20031;-60
2023/01/24 07:00:41;;;;;;;14.38;9.40;;;;;;;;;;5092688;28;20038;-59
2023/01/24 07:03:07;;;;;;;10.75;6.60;;;;;;;;;;5093982;28;20023;-59
2023/01/24 07:05:33;;;;;;;12.70;6.90;;;;;;;;;;5093343;28;20084;-59
2023/01/24 07:07:59;;;;;;;8.48;4.85;;;;;;;;;;5093464;28;20059;-60
2023/01/24 07:10:24;;;;;;;13.80;6.20;;;;;;;;;;5092622;28;20078;-58
2023/01/24 07:12:50;;;;;;;12.07;4.53;;;;;;;;;;5093272;28;20145;-57
2023/01/24 07:15:15;;;;;;;12.85;6.07;;;;;;;;;;5093189;28;20379;-58
2023/01/24 07:17:41;;;;;;;12.48;6.80;;;;;;;;;;5091516;28;20023;-57
2023/01/24 07:20:07;;;;;;;14.73;7.05;;;;;;;;;;5092586;28;20027;-59
2023/01/24 07:22:33;;;;;;;15.45;8.75;;;;;;;;;;5092809;28;20087;-59
2023/01/24 07:24:58;;;;;;;18.30;9.07;;;;;;;;;;5092682;28;20039;-60
2023/01/24 07:27:24;;;;;;;16.58;8.35;;;;;;;;;;5091521;28;20376;-59
2023/01/24 07:29:49;;;;;;;13.38;6.93;;;;;;;;;;5092949;28;20440;-59
2023/01/24 07:32:15;;;;;;;19.52;9.05;;;;;;;;;;5093082;28;20519;-64
2023/01/24 07:34:40;;;;;;;16.50;8.48;;;;;;;;;;5093081;28;20461;-61
2023/01/24 07:37:07;;;;;;;14.02;8.48;;;;;;;;;;5092404;28;20020;-59
2023/01/24 07:39:32;;;;;;;14.75;7.95;;;;;;;;;;5092223;28;20031;-59
2023/01/24 07:41:58;;;;;;;13.65;8.57;;;;;;;;;;5092505;28;20016;-60
2023/01/24 07:44:23;;;;;;;13.43;6.38;;;;;;;;;;5090797;28;20027;-59
2023/01/24 07:46:48;;;;;;;13.38;7.30;;;;;;;;;;5092727;28;20020;-59
2023/01/24 07:49:14;;;;;;;18.70;7.93;;;;;;;;;;5092935;28;20023;-59
2023/01/24 07:51:40;;;;;;;17.83;6.57;;;;;;;;;;5092539;28;20362;-58
2023/01/24 07:54:05;;;;;;;19.00;8.55;;;;;;;;;;5091124;28;20020;-58
2023/01/24 07:56:31;;;;;;;13.07;7.70;;;;;;;;;;5090933;28;20067;-60
2023/01/24 07:58:57;;;;;;;15.73;7.82;;;;;;;;;;5092383;28;20016;-60
2023/01/24 08:01:23;;;;;;;17.52;7.45;;;;;;;;;;5092574;28;20031;-61
2023/01/24 08:03:49;;;;;;;14.80;8.20;;;;;;;;;;5091049;28;20049;-60
2023/01/24 08:06:15;;;;;;;10.35;5.72;;;;;;;;;;5092304;28;20024;-59
2023/01/24 08:08:40;;;;;;;13.98;7.75;;;;;;;;;;5092461;28;20020;-60
2023/01/24 08:11:05;;;;;;;15.65;5.50;;;;;;;;;;5092262;28;20027;-59
2023/01/24 08:13:31;;;;;;;15.80;8.05;;;;;;;;;;5092407;28;20028;-58
2023/01/24 08:15:58;;;;;;;17.38;6.45;;;;;;;;;;5091231;28;20028;-57
2023/01/24 08:18:24;;;;;;;8.27;5.10;;;;;;;;;;5091416;28;20107;-59
2023/01/24 08:20:53;;;;;;;16.55;5.72;;;;;;;;;;5092592;28;20044;-58
2023/01/24 08:23:19;;;;;;;13.93;5.95;;;;;;;;;;5093568;28;20020;-58
2023/01/24 08:25:44;;;;;;;14.18;7.78;;;;;;;;;;5094116;28;20495;-61
2023/01/24 08:28:09;;;;;;;10.85;5.78;;;;;;;;;;5094480;28;20016;-58
2023/01/24 08:30:35;;;;;;;11.10;5.30;;;;;;;;;;5093054;28;20020;-59
2023/01/24 08:33:04;;;;;;;14.10;6.55;;;;;;;;;;5093531;28;20114;-63
2023/01/24 08:35:30;;;;;;;8.10;5.65;;;;;;;;;;5095102;28;20101;-59
2023/01/24 08:37:56;;;;;;;14.15;6.38;;;;;;;;;;5093236;28;20411;-60
2023/01/24 08:40:21;;;;;;;12.35;6.22;;;;;;;;;;5092697;28;20353;-59
2023/01/24 08:42:47;;;;;;;15.73;3.50;;;;;;;;;;5090919;28;20039;-59
2023/01/24 08:45:12;;;;;;;11.05;5.53;;;;;;;;;;5091075;28;20069;-57
2023/01/24 08:47:38;;;;;;;10.55;6.28;;;;;;;;;;5094725;28;20103;-57
2023/01/24 08:50:03;;;;;;;10.73;5.60;;;;;;;;;;5098826;28;20051;-58
2023/01/24 08:52:29;;;;;;;8.57;3.42;;;;;;;;;;5098756;28;20042;-63
2023/01/24 08:54:54;;;;;;;9.10;5.30;;;;;;;;;;5096618;28;20020;-59
2023/01/24 08:57:20;;;;;;;13.07;5.82;;;;;;;;;;5095176;28;20016;-57
2023/01/24 08:59:46;;;;;;;10.00;4.45;;;;;;;;;;5096043;28;20419;-64
2023/01/24 09:02:12;;;;;;;14.82;6.70;;;;;;;;;;5096523;28;20048;-59
2023/01/24 09:04:38;;;;;;;12.25;5.25;;;;;;;;;;5096041;28;20076;-60
2023/01/24 09:07:04;;;;;;;17.55;6.30;;;;;;;;;;5095771;28;20427;-60
2023/01/24 09:09:30;;;;;;;10.32;4.65;;;;;;;;;;5096036;28;20529;-58
2023/01/24 09:11:57;;;;;;;12.50;5.10;;;;;;;;;;5095697;28;20035;-59
2023/01/24 09:14:23;;;;;;;10.45;5.15;;;;;;;;;;5094374;28;20073;-60
2023/01/24 09:16:48;;;;;;;11.77;5.50;;;;;;;;;;5096419;28;20024;-57
2023/01/24 09:19:14;;;;;;;12.77;5.18;;;;;;;;;;5096294;28;20149;-60
2023/01/24 09:21:39;;;;;;;12.02;4.60;;;;;;;;;;5097270;28;20419;-59
2023/01/24 09:24:06;;;;;;;6.47;3.70;;;;;;;;;;5096776;28;20550;-62
2023/01/24 09:26:31;;;;;;;11.10;3.97;;;;;;;;;;5095934;28;20072;-59
2023/01/24 09:28:57;;;;;;;16.50;8.07;;;;;;;;;;5096306;28;20103;-59
2023/01/24 09:31:22;;;;;;;6.18;3.30;;;;;;;;;;5096542;28;20124;-59
2023/01/24 09:33:48;;;;;;;7.07;3.80;;;;;;;;;;5095498;28;20036;-59
2023/01/24 09:36:13;;;;;;;13.77;4.20;;;;;;;;;;5094622;28;20020;-60
2023/01/24 09:38:39;;;;;;;9.38;4.57;;;;;;;;;;5095656;28;20020;-59
2023/01/24 09:41:19;;;;;;;8.20;3.75;;;;;;;;;;5096315;28;20506;-59
2023/01/24 09:43:52;;;;;;;9.38;3.70;;;;;;;;;;5098015;28;20027;-58
2023/01/24 09:46:23;;;;;;;10.07;4.53;;;;;;;;;;5097584;28;20023;-59
2023/01/24 09:48:52;;;;;;;14.30;4.50;;;;;;;;;;5096174;28;20020;-63
2023/01/24 09:51:26;;;;;;;7.50;4.30;;;;;;;;;;5095636;28;20013;-60
2023/01/24 09:53:53;;;;;;;10.70;4.95;;;;;;;;;;5094145;28;20157;-59
2023/01/24 09:56:26;;;;;;;11.25;4.57;;;;;;;;;;5095701;28;20012;-60
2023/01/24 09:59:12;;;;;;;12.32;4.75;;;;;;;;;;5095701;28;20484;-59
2023/01/24 10:01:40;;;;;;;9.55;4.70;;;;;;;;;;5063698;28;20039;-60
2023/01/24 10:04:16;;;;;;;12.65;5.13;;;;;;;;;;5094738;28;20118;-61
2023/01/24 10:07:02;;;;;;;11.85;4.70;;;;;;;;;;5094719;28;20051;-66
2023/01/24 10:09:39;;;;;;;12.25;5.72;;;;;;;;;;5083309;28;20020;-59
2023/01/24 10:12:14;;;;;;;7.70;4.07;;;;;;;;;;5093835;28;20112;-63
2023/01/24 10:14:39;;;;;;;10.30;4.07;;;;;;;;;;5096493;28;20028;-60
2023/01/24 10:17:14;;;;;;;10.63;5.45;;;;;;;;;;5094407;28;20073;-60
2023/01/24 10:19:40;;;;;;;14.82;6.05;;;;;;;;;;5095961;28;20024;-59
2023/01/24 10:22:17;;;;;;;9.90;4.20;;;;;;;;;;5095609;28;20103;-59
2023/01/24 10:24:48;;;;;;;11.25;4.75;;;;;;;;;;5094442;28;20024;-60
2023/01/24 10:27:34;;;;;;;14.52;4.78;;;;;;;;;;5093998;28;20039;-59
2023/01/24 10:30:13;;;;;;;14.68;5.18;;;;;;;;;;5093459;28;20051;-60
2023/01/24 10:32:43;;;;;;;9.02;5.20;;;;;;;;;;5093467;28;20055;-60
2023/01/24 10:35:13;;;;;;;11.18;5.20;;;;;;;;;;5093719;28;20042;-60
2023/01/24 10:37:41;;;;;;;12.18;5.13;;;;;;;;;;5093933;28;20056;-59
2023/01/24 10:40:14;;;;;;;8.82;3.90;;;;;;;;;;5092582;28;20016;-60
2023/01/24 10:42:40;;;;;;;12.38;4.40;;;;;;;;;;5093131;28;20024;-61
2023/01/24 10:45:30;;;;;;;9.68;4.03;;;;;;;;;;5093159;28;20023;-60
2023/01/24 10:47:59;;;;;;;11.38;4.97;;;;;;;;;;5093416;28;20490;-61
2023/01/24 10:50:32;;;;;;;12.93;4.78;;;;;;;;;;5093557;28;20069;-64
2023/01/24 10:53:11;;;;;;;11.13;3.67;;;;;;;;;;5092221;28;20496;-59
2023/01/24 10:55:37;;;;;;;8.05;4.68;;;;;;;;;;5091980;28;20119;-59
2023/01/24 10:58:18;;;;;;;10.82;5.50;;;;;;;;;;5093487;28;20023;-60
2023/01/24 11:00:45;;;;;;;13.00;4.70;;;;;;;;;;5093381;28;20032;-65
2023/01/24 11:03:18;;;;;;;12.88;5.03;;;;;;;;;;5092872;28;20094;-61
2023/01/24 11:05:46;;;;;;;10.95;4.47;;;;;;;;;;5092812;28;20512;-62
2023/01/24 11:08:35;;;;;;;11.77;5.03;;;;;;;;;;5093223;28;20027;-62
2023/01/24 11:11:02;;;;;;;15.00;5.60;;;;;;;;;;5081129;28;20468;-67
2023/01/24 11:13:33;;;;;;;12.38;5.63;;;;;;;;;;5093189;28;20035;-61
2023/01/24 11:16:03;;;;;;;7.55;4.55;;;;;;;;;;5091601;28;20114;-60
2023/01/24 11:18:30;;;;;;;6.63;4.32;;;;;;;;;;5093105;28;20060;-60
2023/01/24 11:21:06;;;;;;;7.60;4.18;;;;;;;;;;5092941;28;20097;-60
2023/01/24 11:23:31;;;;;;;8.90;3.83;;;;;;;;;;5092893;28;20055;-60
2023/01/24 11:26:01;;;;;;;10.13;3.58;;;;;;;;;;5093454;28;20354;-62
2023/01/24 11:28:30;;;;;;;7.97;3.80;;;;;;;;;;5093433;28;20020;-60
2023/01/24 11:30:58;;;;;;;13.13;3.85;;;;;;;;;;5093053;28;20100;-60
2023/01/24 11:33:30;;;;;;;8.15;2.88;;;;;;;;;;5093462;28;20024;-61
2023/01/24 11:36:00;;;;;;;8.50;3.33;;;;;;;;;;5095175;28;20336;-61
2023/01/24 11:38:28;;;;;;;8.05;2.83;;;;;;;;;;5095267;28;20075;-68
2023/01/24 11:41:02;;;;;;;6.93;3.22;;;;;;;;;;5094581;28;20024;-61
2023/01/24 11:43:27;;;;;;;5.60;2.30;;;;;;;;;;5092918;28;20077;-59
2023/01/24 11:45:53;;;;;;;12.65;3.83;;;;;;;;;;5092790;28;20028;-60
2023/01/24 11:48:19;;;;;;;10.32;3.20;;;;;;;;;;5092669;28;20012;-60
2023/01/24 11:50:45;;;;;;;8.75;3.00;;;;;;;;;;5092604;28;20028;-61
2023/01/24 11:53:17;;;;;;;6.90;3.13;;;;;;;;;;5092778;28;20092;-59
2023/01/24 11:55:43;;;;;;;7.68;3.72;;;;;;;;;;5092907;28;20468;-59
2023/01/24 11:58:20;;;;;;;6.72;3.08;;;;;;;;;;5091549;28;20157;-60
2023/01/24 12:00:52;;;;;;;10.05;3.15;;;;;;;;;;5091290;28;20024;-59
2023/01/24 12:03:20;;;;;;;6.55;3.17;;;;;;;;;;5091925;28;20368;-60
2023/01/24 12:05:48;;;;;;;8.93;3.05;;;;;;;;;;5091014;28;20382;-60
2023/01/24 12:08:25;;;;;;;7.30;3.30;;;;;;;;;;5092848;28;20520;-60
2023/01/24 12:10:50;;;;;;;8.75;3.50;;;;;;;;;;5092918;28;20024;-60
2023/01/24 12:13:16;;;;;;;7.32;3.20;;;;;;;;;;5091858;28;20506;-59
2023/01/24 12:15:44;;;;;;;8.38;3.33;;;;;;;;;;5092769;28;20020;-60
2023/01/24 12:18:12;;;;;;;5.10;3.17;;;;;;;;;;5093091;28;20031;-58
2023/01/24 12:20:44;;;;;;;10.60;2.75;;;;;;;;;;5094762;28;20024;-62
2023/01/24 12:23:19;;;;;;;5.28;2.72;;;;;;;;;;5098279;28;20024;-64
2023/01/24 12:25:45;;;;;;;6.78;3.25;;;;;;;;;;5097872;28;20112;-62
2023/01/24 12:28:13;;;;;;;6.85;3.53;;;;;;;;;;5098583;28;20074;-61
2023/01/24 12:30:49;;;;;;;9.95;3.10;;;;;;;;;;5097040;28;20081;-60
2023/01/24 12:33:32;;;;;;;6.18;2.85;;;;;;;;;;5096751;28;20032;-61
2023/01/24 12:36:00;;;;;;;10.98;3.35;;;;;;;;;;5097006;28;20044;-60
2023/01/24 12:38:30;;;;;;;7.65;2.88;;;;;;;;;;5096427;28;20077;-59
2023/01/24 12:40:55;;;;;;;5.13;2.72;;;;;;;;;;5095220;28;20020;-61
2023/01/24 12:43:23;;;;;;;9.57;3.05;;;;;;;;;;5095361;28;20430;-59
2023/01/24 12:46:06;;;;;;;7.43;2.28;;;;;;;;;;5097335;28;20396;-61
2023/01/24 12:48:50;;;;;;;5.75;2.70;;;;;;;;;;5095910;28;20519;-58
2023/01/24 12:51:21;;;;;;;10.40;2.63;;;;;;;;;;5094747;28;20111;-59
2023/01/24 12:53:56;;;;;;;17.63;5.40;;;;;;;;;;5094896;28;20507;-60
2023/01/24 12:56:23;;;;;;;8.57;3.45;;;;;;;;;;5094752;28;20107;-61
2023/01/24 12:58:50;;;;;;;10.77;3.25;;;;;;;;;;5096173;28;20508;-60
2023/01/24 13:01:16;;;;;;;7.63;3.42;;;;;;;;;;5095759;28;20071;-59
2023/01/24 13:03:47;;;;;;;7.72;3.03;;;;;;;;;;5094816;28;20043;-60
2023/01/24 13:06:18;;;;;;;7.78;3.47;;;;;;;;;;5095086;28;20379;-59
2023/01/24 13:08:48;;;;;;;6.88;2.92;;;;;;;;;;5096087;28;20024;-61
2023/01/24 13:11:17;;;;;;;8.48;2.30;;;;;;;;;;5095784;28;20028;-60
2023/01/24 13:13:45;;;;;;;8.82;3.53;;;;;;;;;;5095572;28;20110;-59
2023/01/24 13:16:16;;;;;;;9.02;3.42;;;;;;;;;;5095363;28;20511;-59
2023/01/24 13:18:42;;;;;;;8.32;2.60;;;;;;;;;;5094787;28;20022;-60
2023/01/24 13:21:18;;;;;;;7.53;2.35;;;;;;;;;;5097243;28;20020;-62
2023/01/24 13:23:53;;;;;;;13.00;3.50;;;;;;;;;;5096885;28;20385;-60
2023/01/24 13:26:24;;;;;;;9.55;3.10;;;;;;;;;;5096502;28;20020;-60
2023/01/24 13:28:53;;;;;;;9.30;3.97;;;;;;;;;;5095629;28;20032;-60
2023/01/24 13:31:18;;;;;;;4.88;2.28;;;;;;;;;;5095157;28;20016;-60
2023/01/24 13:33:49;;;;;;;8.32;3.63;;;;;;;;;;5094585;28;20032;-60
2023/01/24 13:36:17;;;;;;;13.23;3.15;;;;;;;;;;5095022;28;20016;-59
2023/01/24 13:38:43;;;;;;;5.30;2.65;;;;;;;;;;5093811;28;20024;-60
2023/01/24 13:41:13;;;;;;;9.95;4.03;;;;;;;;;;5094723;28;20008;-60
2023/01/24 13:43:54;;;;;;;4.35;2.38;;;;;;;;;;5093846;28;20031;-60
2023/01/24 13:46:40;;;;;;;12.20;3.35;;;;;;;;;;5094929;28;20084;-60
2023/01/24 13:49:05;;;;;;;;;;;;;;;;;;5093320;28;20103;-60
2023/01/24 13:51:32;;;;;;;6.00;2.78;;;;;;;;;;5093069;28;20002;-62
2023/01/24 13:53:59;;;;;;;11.20;3.40;;;;;;;;;;5094255;28;20035;-60
2023/01/24 13:56:25;;;;;;;7.78;3.38;;;;;;;;;;5093491;28;20101;-60
2023/01/24 13:58:51;;;;;;;11.15;4.03;;;;;;;;;;5094773;28;20050;-60
2023/01/24 14:01:18;;;;;;;9.05;2.97;;;;;;;;;;5094590;28;20028;-60
2023/01/24 14:03:52;;;;;;;9.27;3.03;;;;;;;;;;5094051;28;20020;-58
2023/01/24 14:06:18;;;;;;;7.65;3.13;;;;;;;;;;5094852;28;20012;-60
2023/01/24 14:08:58;;;;;;;11.70;2.90;;;;;;;;;;5093219;28;20126;-59
2023/01/24 14:11:27;;;;;;;6.32;3.00;;;;;;;;;;5093145;28;20107;-60
2023/01/24 14:13:57;;;;;;;6.97;2.90;;;;;;;;;;5094429;28;20115;-60
2023/01/24 14:16:31;;;;;;;5.78;2.70;;;;;;;;;;5094560;28;20024;-60
2023/01/24 14:19:07;;;;;;;9.23;2.88;;;;;;;;;;5094189;28;20498;-59
2023/01/24 14:21:35;;;;;;;9.63;3.22;;;;;;;;;;5094748;28;20024;-61
2023/01/24 14:24:10;;;;;;;12.18;3.08;;;;;;;;;;5094727;28;20379;-60
2023/01/24 14:26:36;;;;;;;9.38;3.00;;;;;;;;;;5094251;28;20019;-60
2023/01/24 14:29:03;;;;;;;13.02;3.08;;;;;;;;;;5093302;28;20110;-60
2023/01/24 14:31:31;;;;;;;7.50;2.33;;;;;;;;;;5092659;28;20054;-60
2023/01/24 14:34:00;;;;;;;10.07;2.55;;;;;;;;;;5093738;28;20032;-59
2023/01/24 14:36:30;;;;;;;6.47;2.33;;;;;;;;;;5093744;28;20465;-60
2023/01/24 14:39:14;;;;;;;6.35;2.00;;;;;;;;;;5093723;28;20439;-62
2023/01/24 14:41:40;;;;;;;6.45;2.90;;;;;;;;;;5094210;28;20019;-60
2023/01/24 14:44:20;;;;;;;11.73;3.60;;;;;;;;;;5092749;28;20384;-59
2023/01/24 14:46:53;;;;;;;9.05;2.60;;;;;;;;;;5095410;28;20103;-59
2023/01/24 14:49:25;;;;;;;3.90;2.42;;;;;;;;;;5095931;28;20034;-61
2023/01/24 14:51:50;;;;;;;8.82;2.60;;;;;;;;;;5094604;28;20465;-60
2023/01/24 14:54:20;;;;;;;6.43;2.53;;;;;;;;;;5092222;28;20047;-59
2023/01/24 14:56:46;;;;;;;8.00;2.97;;;;;;;;;;5093296;28;20024;-60
2023/01/24 14:59:12;;;;;;;7.95;3.03;;;;;;;;;;5091338;28;20103;-59
2023/01/24 15:01:37;;;;;;;8.80;2.75;;;;;;;;;;5091898;28;20020;-60
2023/01/24 15:04:04;;;;;;;7.45;2.75;;;;;;;;;;5093356;28;20036;-61
2023/01/24 15:06:30;;;;;;;6.30;2.17;;;;;;;;;;5092985;28;20024;-60
2023/01/24 15:08:56;;;;;;;9.50;2.80;;;;;;;;;;5092981;28;20189;-61
2023/01/24 15:11:25;;;;;;;5.90;1.98;;;;;;;;;;5093431;28;20449;-60
2023/01/24 15:14:10;;;;;;;7.53;3.25;;;;;;;;;;5092693;28;20032;-60
2023/01/24 15:16:38;;;;;;;4.20;2.25;;;;;;;;;;5081977;28;20027;-61
2023/01/24 15:19:22;;;;;;;7.15;2.40;;;;;;;;;;5092445;28;20024;-59